createdAt,value
2022-09-20T00:00:23.822Z,4.80
2022-09-20T00:01:23.859Z,4.70
2022-09-20T00:02:23.805Z,4.90
2022-09-20T00:03:23.793Z,4.90
2022-09-20T00:04:23.783Z,5.10
2022-09-20T00:05:23.825Z,4.80
2022-09-20T00:06:23.765Z,5.00
2022-09-20T00:07:23.756Z,4.50
2022-09-20T00:08:23.746Z,5.10
2022-09-20T00:09:23.739Z,5.00
2022-09-20T00:10:23.728Z,4.80
2022-09-20T00:11:23.719Z,4.90
2022-09-20T00:12:23.711Z,5.00
2022-09-20T00:13:23.709Z,4.90
2022-09-20T00:14:23.695Z,4.90
2022-09-20T00:15:23.683Z,4.80
2022-09-20T00:16:23.749Z,5.00
2022-09-20T00:17:23.666Z,5.20
2022-09-20T00:18:23.658Z,5.10
2022-09-20T00:19:23.649Z,5.30
2022-09-20T00:20:23.640Z,5.50
2022-09-20T00:21:23.628Z,5.50
2022-09-20T00:22:23.621Z,5.30
2022-09-20T00:23:23.612Z,5.70
2022-09-20T00:24:23.604Z,5.40
2022-09-20T00:25:23.593Z,5.10
2022-09-20T00:26:23.584Z,5.30
2022-09-20T00:27:23.576Z,5.30
2022-09-20T00:28:23.568Z,5.80
2022-09-20T00:29:23.558Z,5.80
2022-09-20T00:30:23.550Z,5.30
2022-09-20T00:31:23.600Z,5.40
2022-09-20T00:32:23.532Z,5.80
2022-09-20T00:33:23.521Z,5.90
2022-09-20T00:34:23.512Z,6.00
2022-09-20T00:35:23.503Z,6.00
2022-09-20T00:36:23.493Z,5.70
2022-09-20T00:37:23.484Z,5.90
2022-09-20T00:38:23.477Z,5.40
2022-09-20T00:39:23.466Z,5.70
2022-09-20T00:40:23.492Z,5.90
2022-09-20T00:41:23.454Z,5.70
2022-09-20T00:42:23.439Z,5.80
2022-09-20T00:43:23.429Z,5.60
2022-09-20T00:44:23.426Z,5.90
2022-09-20T00:45:23.411Z,5.50
2022-09-20T00:46:23.462Z,5.90
2022-09-20T00:47:23.393Z,6.10
2022-09-20T00:48:23.388Z,6.30
2022-09-20T00:49:23.376Z,5.90
2022-09-20T00:50:23.366Z,6.00
2022-09-20T00:51:23.354Z,6.20
2022-09-20T00:52:23.349Z,6.00
2022-09-20T00:53:23.341Z,6.10
2022-09-20T00:54:23.330Z,6.30
2022-09-20T00:55:23.320Z,6.20
2022-09-20T00:56:23.310Z,6.40
2022-09-20T00:57:23.304Z,6.40
2022-09-20T00:58:23.294Z,6.50
2022-09-20T00:59:23.284Z,6.60
2022-09-20T01:00:23.275Z,6.70
2022-09-20T01:01:23.321Z,6.70
2022-09-20T01:02:23.353Z,6.60
2022-09-20T01:03:23.249Z,6.40
2022-09-20T01:04:23.239Z,6.70
2022-09-20T01:05:23.231Z,7.30
2022-09-20T01:06:23.222Z,6.60
2022-09-20T01:07:23.210Z,6.80
2022-09-20T01:08:23.204Z,8.00
2022-09-20T01:09:23.193Z,6.80
2022-09-20T01:10:23.185Z,6.80
2022-09-20T01:11:23.174Z,6.70
2022-09-20T01:12:23.169Z,6.90
2022-09-20T01:13:23.157Z,6.50
2022-09-20T01:14:23.146Z,6.80
2022-09-20T01:15:23.137Z,6.50
2022-09-20T01:16:23.173Z,7.30
2022-09-20T01:17:23.121Z,6.90
2022-09-20T01:18:23.112Z,6.50
2022-09-20T01:19:23.102Z,7.00
2022-09-20T01:20:23.091Z,6.70
2022-09-20T01:21:23.081Z,6.70
2022-09-20T01:22:23.075Z,6.70
2022-09-20T01:23:23.067Z,6.70
2022-09-20T01:24:23.066Z,6.40
2022-09-20T01:25:23.047Z,6.80
2022-09-20T01:26:23.038Z,6.40
2022-09-20T01:27:23.032Z,7.10
2022-09-20T01:28:23.021Z,7.30
2022-09-20T01:29:23.011Z,6.80
2022-09-20T01:30:23.002Z,6.50
2022-09-20T01:31:23.038Z,6.70
2022-09-20T01:33:54.633Z,6.80
2022-09-20T01:34:54.610Z,6.30
2022-09-20T01:36:47.718Z,6.70
2022-09-20T01:37:47.701Z,6.80
2022-09-20T01:39:40.621Z,6.80
2022-09-20T01:40:40.625Z,6.70
2022-09-20T01:42:44.595Z,6.50
2022-09-20T01:43:44.580Z,7.10
2022-09-20T01:45:37.737Z,6.60
2022-09-20T01:46:37.664Z,6.50
2022-09-20T01:48:41.664Z,6.60
2022-09-20T01:49:41.639Z,6.60
2022-09-20T01:51:45.636Z,6.90
2022-09-20T01:52:45.624Z,6.90
2022-09-20T01:54:38.548Z,6.70
2022-09-20T01:55:38.524Z,6.90
2022-09-20T01:57:31.433Z,6.60
2022-09-20T01:58:31.419Z,7.20
2022-09-20T02:00:35.415Z,6.90
2022-09-20T02:01:35.464Z,7.10
2022-09-20T02:03:39.398Z,7.10
2022-09-20T02:04:39.375Z,6.90
2022-09-20T02:06:32.285Z,6.90
2022-09-20T02:07:32.273Z,6.90
2022-09-20T02:09:36.285Z,6.60
2022-09-20T02:10:36.262Z,6.60
2022-09-20T02:12:51.342Z,6.50
2022-09-20T02:13:51.327Z,6.20
2022-09-20T02:15:44.240Z,6.20
2022-09-20T02:16:44.273Z,6.00
2022-09-20T02:18:37.342Z,6.00
2022-09-20T02:19:37.321Z,6.30
2022-09-20T02:21:41.314Z,5.90
2022-09-20T02:22:41.296Z,5.60
2022-09-20T02:24:45.780Z,5.70
2022-09-20T02:25:45.754Z,5.70
2022-09-20T02:26:45.751Z,6.80
2022-09-20T02:27:45.740Z,5.30
2022-09-20T02:28:45.733Z,5.50
2022-09-20T02:29:45.724Z,5.10
2022-09-20T02:30:45.712Z,4.90
2022-09-20T02:31:45.772Z,5.10
2022-09-20T02:32:45.694Z,4.90
2022-09-20T02:33:45.689Z,5.10
2022-09-20T02:34:45.676Z,4.90
2022-09-20T02:35:45.669Z,5.20
2022-09-20T02:36:45.659Z,4.90
2022-09-20T02:37:45.651Z,4.60
2022-09-20T02:38:45.643Z,4.90
2022-09-20T02:39:45.629Z,4.70
2022-09-20T02:40:45.658Z,4.90
2022-09-20T02:41:45.613Z,4.80
2022-09-20T02:42:45.602Z,4.70
2022-09-20T02:43:45.592Z,4.80
2022-09-20T02:44:45.584Z,4.70
2022-09-20T02:45:45.634Z,5.40
2022-09-20T02:46:45.577Z,5.00
2022-09-20T02:47:45.564Z,4.90
2022-09-20T02:48:45.547Z,5.20
2022-09-20T02:49:45.540Z,4.80
2022-09-20T02:50:45.525Z,4.90
2022-09-20T02:51:45.519Z,5.20
2022-09-20T02:52:45.513Z,5.20
2022-09-20T02:53:45.500Z,5.20
2022-09-20T02:54:45.491Z,5.60
2022-09-20T02:55:45.483Z,5.50
2022-09-20T02:56:45.474Z,5.50
2022-09-20T02:57:45.468Z,5.50
2022-09-20T02:58:45.455Z,5.10
2022-09-20T02:59:45.468Z,5.60
2022-09-20T03:00:45.610Z,5.50
2022-09-20T03:01:45.524Z,5.10
2022-09-20T03:02:45.519Z,5.20
2022-09-20T03:03:45.410Z,5.40
2022-09-20T03:04:45.401Z,5.20
2022-09-20T03:05:45.391Z,5.40
2022-09-20T03:06:45.385Z,5.50
2022-09-20T03:07:45.372Z,5.50
2022-09-20T03:08:45.361Z,5.80
2022-09-20T03:09:45.353Z,6.40
2022-09-20T03:10:45.345Z,6.00
2022-09-20T03:11:45.334Z,5.80
2022-09-20T03:12:45.326Z,6.10
2022-09-20T03:13:45.317Z,5.90
2022-09-20T03:14:45.308Z,5.60
2022-09-20T03:15:45.298Z,5.90
2022-09-20T03:16:48.762Z,5.70
2022-09-20T03:17:45.281Z,5.50
2022-09-20T03:18:45.269Z,6.00
2022-09-20T03:19:45.272Z,5.80
2022-09-20T03:20:45.253Z,5.80
2022-09-20T03:21:45.244Z,5.80
2022-09-20T03:22:45.234Z,5.70
2022-09-20T03:23:45.225Z,5.60
2022-09-20T03:24:45.217Z,6.10
2022-09-20T03:25:45.207Z,6.00
2022-09-20T03:26:45.198Z,5.90
2022-09-20T03:27:45.191Z,6.10
2022-09-20T03:28:45.181Z,6.30
2022-09-20T03:29:45.168Z,6.20
2022-09-20T03:30:45.161Z,6.60
2022-09-20T03:31:45.219Z,6.40
2022-09-20T03:32:45.143Z,6.30
2022-09-20T03:33:45.131Z,6.50
2022-09-20T03:34:45.122Z,6.10
2022-09-20T03:35:45.113Z,6.10
2022-09-20T03:36:45.106Z,6.30
2022-09-20T03:37:45.096Z,6.20
2022-09-20T03:38:45.084Z,6.40
2022-09-20T03:39:45.083Z,6.30
2022-09-20T03:40:46.678Z,6.10
2022-09-20T03:41:45.065Z,6.40
2022-09-20T03:42:45.052Z,6.10
2022-09-20T03:43:45.041Z,6.10
2022-09-20T03:44:45.032Z,6.50
2022-09-20T03:45:45.122Z,6.40
2022-09-20T03:46:45.012Z,6.20
2022-09-20T03:47:45.006Z,6.70
2022-09-20T03:48:44.996Z,6.50
2022-09-20T03:49:44.987Z,6.40
2022-09-20T03:50:44.982Z,6.30
2022-09-20T03:51:44.970Z,5.90
2022-09-20T03:52:44.961Z,6.40
2022-09-20T03:53:44.956Z,6.60
2022-09-20T03:54:44.942Z,6.50
2022-09-20T03:55:44.932Z,6.40
2022-09-20T03:56:44.921Z,6.10
2022-09-20T03:57:44.912Z,6.00
2022-09-20T03:58:44.906Z,6.10
2022-09-20T03:59:44.896Z,5.90
2022-09-20T04:00:44.925Z,6.00
2022-09-20T04:01:44.882Z,6.20
2022-09-20T04:02:44.909Z,5.90
2022-09-20T04:03:44.859Z,5.80
2022-09-20T04:04:44.856Z,6.10
2022-09-20T04:05:44.845Z,6.30
2022-09-20T04:06:44.841Z,5.90
2022-09-20T04:07:44.825Z,6.20
2022-09-20T04:08:44.817Z,6.00
2022-09-20T04:09:44.809Z,5.90
2022-09-20T04:10:44.796Z,5.90
2022-09-20T04:11:44.794Z,5.60
2022-09-20T04:12:44.793Z,5.60
2022-09-20T04:13:44.781Z,5.80
2022-09-20T04:14:44.768Z,5.90
2022-09-20T04:15:44.754Z,5.90
2022-09-20T04:16:44.792Z,5.70
2022-09-20T04:17:44.742Z,5.90
2022-09-20T04:18:44.739Z,5.50
2022-09-20T04:19:44.732Z,5.40
2022-09-20T04:20:44.720Z,5.70
2022-09-20T04:21:44.701Z,5.60
2022-09-20T04:22:44.697Z,5.40
2022-09-20T04:23:44.687Z,5.60
2022-09-20T04:24:44.669Z,5.80
2022-09-20T04:25:44.664Z,5.70
2022-09-20T04:26:44.656Z,5.60
2022-09-20T04:27:44.644Z,5.90
2022-09-20T04:28:44.644Z,5.60
2022-09-20T04:29:44.629Z,5.30
2022-09-20T04:30:44.621Z,5.40
2022-09-20T04:31:44.679Z,5.20
2022-09-20T04:32:44.604Z,5.50
2022-09-20T04:33:44.594Z,5.60
2022-09-20T04:34:44.588Z,5.80
2022-09-20T04:35:44.570Z,5.70
2022-09-20T04:36:44.570Z,5.60
2022-09-20T04:37:44.558Z,5.70
2022-09-20T04:38:44.550Z,5.90
2022-09-20T04:39:44.541Z,5.70
2022-09-20T04:40:44.633Z,5.80
2022-09-20T04:41:44.523Z,5.50
2022-09-20T04:42:44.516Z,6.00
2022-09-20T04:43:44.504Z,5.80
2022-09-20T04:44:44.501Z,5.70
2022-09-20T04:45:44.538Z,5.70
2022-09-20T04:46:44.486Z,5.50
2022-09-20T04:47:44.471Z,6.00
2022-09-20T04:48:44.462Z,6.10
2022-09-20T04:49:44.453Z,6.00
2022-09-20T04:50:44.449Z,6.20
2022-09-20T04:51:44.436Z,5.90
2022-09-20T04:52:44.428Z,6.10
2022-09-20T04:53:44.418Z,6.20
2022-09-20T04:54:44.417Z,5.80
2022-09-20T04:55:44.441Z,5.90
2022-09-20T04:56:44.393Z,5.70
2022-09-20T04:57:44.378Z,6.10
2022-09-20T04:58:44.373Z,6.10
2022-09-20T04:59:44.363Z,6.00
2022-09-20T05:00:44.422Z,6.10
2022-09-20T05:01:44.401Z,6.20
2022-09-20T05:02:44.398Z,6.10
2022-09-20T05:03:44.331Z,6.10
2022-09-20T05:04:44.326Z,6.00
2022-09-20T05:05:44.439Z,5.90
2022-09-20T05:06:44.314Z,5.80
2022-09-20T05:07:44.438Z,5.40
2022-09-20T05:08:44.287Z,5.50
2022-09-20T05:09:44.276Z,6.00
2022-09-20T05:10:44.266Z,5.70
2022-09-20T05:11:44.257Z,5.50
2022-09-20T05:12:44.252Z,5.70
2022-09-20T05:13:44.244Z,6.00
2022-09-20T05:14:44.232Z,6.20
2022-09-20T05:15:44.222Z,5.80
2022-09-20T05:16:44.277Z,5.70
2022-09-20T05:17:44.207Z,5.90
2022-09-20T05:18:44.196Z,5.80
2022-09-20T05:19:44.189Z,5.80
2022-09-20T05:20:44.177Z,5.70
2022-09-20T05:21:44.172Z,5.30
2022-09-20T05:22:44.161Z,5.50
2022-09-20T05:23:44.159Z,5.60
2022-09-20T05:24:44.148Z,5.70
2022-09-20T05:25:44.138Z,5.30
2022-09-20T05:26:44.124Z,5.50
2022-09-20T05:27:44.121Z,5.60
2022-09-20T05:28:44.107Z,5.10
2022-09-20T05:29:44.100Z,5.40
2022-09-20T05:30:44.094Z,5.00
2022-09-20T05:31:44.110Z,4.90
2022-09-20T05:32:44.091Z,4.80
2022-09-20T05:33:44.064Z,4.90
2022-09-20T05:34:44.064Z,4.60
2022-09-20T05:35:44.049Z,4.70
2022-09-20T05:36:44.038Z,4.20
2022-09-20T05:37:44.038Z,4.40
2022-09-20T05:38:44.024Z,4.20
2022-09-20T05:39:44.014Z,3.70
2022-09-20T05:40:44.560Z,3.90
2022-09-20T05:41:43.997Z,4.00
2022-09-20T05:42:44.000Z,3.90
2022-09-20T05:43:43.986Z,4.10
2022-09-20T05:44:43.970Z,3.70
2022-09-20T05:45:43.972Z,3.50
2022-09-20T05:46:43.952Z,3.60
2022-09-20T05:47:43.951Z,3.50
2022-09-20T05:48:43.938Z,4.30
2022-09-20T05:49:43.931Z,3.90
2022-09-20T05:50:43.925Z,3.30
2022-09-20T05:51:43.927Z,3.10
2022-09-20T05:52:43.908Z,3.40
2022-09-20T05:53:43.902Z,2.60
2022-09-20T05:54:43.889Z,2.00
2022-09-20T05:55:43.881Z,1.40
2022-09-20T05:56:43.874Z,1.40
2022-09-20T05:57:43.864Z,1.30
2022-09-20T05:58:43.860Z,1.40
2022-09-20T05:59:43.847Z,1.40
2022-09-20T06:00:43.844Z,1.20
2022-09-20T06:01:43.838Z,1.50
2022-09-20T06:02:43.832Z,1.70
2022-09-20T06:03:43.824Z,1.70
2022-09-20T06:04:43.814Z,1.70
2022-09-20T06:05:43.810Z,1.70
2022-09-20T06:06:43.798Z,1.70
2022-09-20T06:07:43.815Z,1.60
2022-09-20T06:08:43.784Z,1.80
2022-09-20T06:09:43.774Z,1.80
2022-09-20T06:10:43.765Z,1.80
2022-09-20T06:11:46.310Z,1.80
2022-09-20T06:12:43.779Z,1.90
2022-09-20T06:13:43.745Z,2.00
2022-09-20T06:14:43.733Z,2.10
2022-09-20T06:15:43.727Z,2.20
2022-09-20T06:16:43.761Z,1.90
2022-09-20T06:17:43.713Z,1.90
2022-09-20T06:18:43.704Z,1.90
2022-09-20T06:19:43.696Z,2.20
2022-09-20T06:20:43.697Z,2.00
2022-09-20T06:21:43.681Z,2.10
2022-09-20T06:22:43.674Z,2.00
2022-09-20T06:23:43.661Z,2.10
2022-09-20T06:24:43.657Z,2.30
2022-09-20T06:25:43.651Z,2.50
2022-09-20T06:26:43.644Z,2.10
2022-09-20T06:27:43.632Z,2.00
2022-09-20T06:28:43.625Z,2.10
2022-09-20T06:29:43.618Z,2.20
2022-09-20T06:30:43.659Z,2.00
2022-09-20T06:31:43.600Z,1.90
2022-09-20T06:32:43.591Z,2.00
2022-09-20T06:33:43.587Z,1.90
2022-09-20T06:34:43.580Z,2.00
2022-09-20T06:35:43.570Z,1.90
2022-09-20T06:36:43.563Z,1.80
2022-09-20T06:37:43.551Z,1.90
2022-09-20T06:38:43.546Z,1.90
2022-09-20T06:39:43.534Z,1.90
2022-09-20T06:40:43.531Z,1.90
2022-09-20T06:41:43.524Z,2.00
2022-09-20T06:42:43.513Z,2.00
2022-09-20T06:43:43.504Z,1.80
2022-09-20T06:44:43.496Z,2.00
2022-09-20T06:45:43.519Z,1.90
2022-09-20T06:46:43.480Z,1.80
2022-09-20T06:47:43.474Z,1.90
2022-09-20T06:48:43.462Z,1.80
2022-09-20T06:49:43.461Z,2.10
2022-09-20T06:50:43.448Z,1.90
2022-09-20T06:51:43.443Z,1.90
2022-09-20T06:52:43.430Z,1.80
2022-09-20T06:53:43.428Z,1.80
2022-09-20T06:54:43.417Z,1.90
2022-09-20T06:55:43.409Z,1.80
2022-09-20T06:56:43.399Z,1.90
2022-09-20T06:57:43.406Z,1.70
2022-09-20T06:58:43.388Z,1.80
2022-09-20T06:59:43.375Z,2.00
2022-09-20T07:00:43.467Z,1.70
2022-09-20T07:01:43.434Z,1.90
2022-09-20T07:02:43.355Z,1.90
2022-09-20T07:03:43.348Z,2.00
2022-09-20T07:04:43.337Z,2.70
2022-09-20T07:05:43.329Z,3.30
2022-09-20T07:06:43.318Z,3.00
2022-09-20T07:07:43.312Z,2.10
2022-09-20T07:08:43.309Z,2.30
2022-09-20T07:09:43.313Z,2.00
2022-09-20T07:10:43.298Z,2.30
2022-09-20T07:11:43.281Z,2.20
2022-09-20T07:12:43.275Z,2.00
2022-09-20T07:13:43.266Z,2.10
2022-09-20T07:14:43.259Z,2.00
2022-09-20T07:15:43.252Z,2.00
2022-09-20T07:16:43.371Z,1.90
2022-09-20T07:17:43.235Z,1.60
2022-09-20T07:18:43.235Z,1.70
2022-09-20T07:19:43.222Z,1.50
2022-09-20T07:20:43.209Z,1.70
2022-09-20T07:21:43.204Z,1.70
2022-09-20T07:22:43.205Z,1.70
2022-09-20T07:23:43.184Z,1.80
2022-09-20T07:24:43.178Z,1.70
2022-09-20T07:25:43.173Z,1.70
2022-09-20T07:26:43.164Z,1.60
2022-09-20T07:27:43.156Z,1.50
2022-09-20T07:28:43.149Z,2.50
2022-09-20T07:29:43.141Z,2.90
2022-09-20T07:30:43.134Z,1.90
2022-09-20T07:31:43.169Z,2.40
2022-09-20T07:32:43.117Z,2.90
2022-09-20T07:33:51.777Z,2.90
2022-09-20T07:35:36.545Z,1.80
2022-09-20T07:36:36.516Z,1.90
2022-09-20T07:37:37.240Z,2.00
2022-09-20T07:38:36.497Z,2.00
2022-09-20T07:39:36.487Z,2.20
2022-09-20T07:40:36.562Z,2.00
2022-09-20T07:41:36.475Z,1.70
2022-09-20T07:42:36.465Z,2.50
2022-09-20T07:43:36.459Z,2.00
2022-09-20T07:44:36.453Z,2.00
2022-09-20T07:45:36.475Z,2.40
2022-09-20T07:46:36.439Z,2.40
2022-09-20T07:47:36.429Z,2.90
2022-09-20T07:48:36.420Z,2.50
2022-09-20T07:49:36.416Z,1.70
2022-09-20T07:50:36.405Z,1.80
2022-09-20T07:51:36.397Z,1.80
2022-09-20T07:52:36.389Z,1.50
2022-09-20T07:53:36.380Z,1.70
2022-09-20T07:54:36.371Z,1.90
2022-09-20T07:55:36.366Z,1.90
2022-09-20T07:56:36.357Z,1.70
2022-09-20T07:57:36.351Z,1.80
2022-09-20T07:58:36.339Z,1.90
2022-09-20T07:59:36.337Z,1.90
2022-09-20T08:00:36.331Z,2.10
2022-09-20T08:01:36.377Z,2.30
2022-09-20T08:02:36.388Z,1.90
2022-09-20T08:03:36.309Z,1.90
2022-09-20T08:04:36.305Z,1.70
2022-09-20T08:05:36.299Z,1.90
2022-09-20T08:06:36.282Z,1.60
2022-09-20T08:07:36.274Z,1.60
2022-09-20T08:08:36.265Z,1.60
2022-09-20T08:09:36.261Z,1.50
2022-09-20T08:10:36.251Z,1.60
2022-09-20T08:11:36.247Z,1.50
2022-09-20T08:14:36.218Z,1.30
2022-09-20T08:15:36.207Z,1.50
2022-09-20T08:16:36.235Z,1.50
2022-09-20T08:17:36.201Z,1.70
2022-09-20T08:18:36.191Z,1.30
2022-09-20T08:19:36.184Z,1.30
2022-09-20T08:20:36.174Z,1.30
2022-09-20T08:21:36.163Z,1.40
2022-09-20T08:22:36.158Z,1.30
2022-09-20T08:23:36.153Z,1.50
2022-09-20T08:24:36.142Z,1.50
2022-09-20T08:25:36.136Z,1.40
2022-09-20T08:26:36.123Z,1.30
2022-09-20T08:27:36.121Z,1.30
2022-09-20T08:28:36.109Z,1.40
2022-09-20T08:29:36.111Z,1.50
2022-09-20T08:30:36.098Z,1.40
2022-09-20T08:31:36.130Z,1.40
2022-09-20T08:32:36.087Z,1.30
2022-09-20T08:33:36.074Z,1.40
2022-09-20T08:34:36.067Z,1.60
2022-09-20T08:35:38.157Z,1.70
2022-09-20T08:36:36.945Z,1.50
2022-09-20T08:37:36.102Z,1.50
2022-09-20T08:40:36.043Z,1.50
2022-09-20T08:41:36.014Z,1.20
2022-09-20T08:42:42.017Z,1.30
2022-09-20T08:43:35.997Z,1.30
2022-09-20T08:44:36.000Z,1.10
2022-09-20T08:45:35.991Z,1.10
2022-09-20T08:46:36.041Z,1.30
2022-09-20T08:47:36.047Z,1.20
2022-09-20T08:48:35.960Z,1.50
2022-09-20T08:49:35.957Z,1.10
2022-09-20T08:50:35.958Z,1.20
2022-09-20T08:51:35.941Z,1.20
2022-09-20T08:52:36.629Z,1.30
2022-09-20T08:53:35.922Z,1.10
2022-09-20T08:54:35.919Z,1.00
2022-09-20T08:55:37.225Z,1.20
2022-09-20T08:56:35.902Z,1.10
2022-09-20T08:57:35.899Z,1.10
2022-09-20T08:58:35.889Z,1.00
2022-09-20T08:59:35.883Z,1.10
2022-09-20T09:00:35.874Z,0.90
2022-09-20T09:01:35.865Z,1.20
2022-09-20T09:02:35.913Z,1.20
2022-09-20T09:03:35.849Z,1.10
2022-09-20T09:04:35.849Z,1.00
2022-09-20T09:05:35.836Z,1.20
2022-09-20T09:06:35.830Z,1.40
2022-09-20T09:07:35.821Z,1.30
2022-09-20T09:08:38.146Z,1.20
2022-09-20T09:09:37.666Z,1.20
2022-09-20T09:10:35.800Z,1.00
2022-09-20T09:11:35.795Z,1.10
2022-09-20T09:12:35.788Z,1.10
2022-09-20T09:13:35.781Z,1.30
2022-09-20T09:14:35.770Z,1.80
2022-09-20T09:15:35.762Z,1.60
2022-09-20T09:16:36.462Z,1.10
2022-09-20T09:17:35.750Z,1.10
2022-09-20T09:18:35.743Z,1.10
2022-09-20T09:19:35.728Z,1.50
2022-09-20T09:20:35.730Z,1.30
2022-09-20T09:21:35.723Z,2.10
2022-09-20T09:22:35.718Z,1.80
2022-09-20T09:23:35.705Z,1.70
2022-09-20T09:24:35.702Z,1.70
2022-09-20T09:25:35.689Z,1.40
2022-09-20T09:26:35.688Z,1.30
2022-09-20T09:27:35.679Z,1.60
2022-09-20T09:28:35.674Z,1.50
2022-09-20T09:29:35.669Z,2.20
2022-09-20T09:30:35.654Z,3.70
2022-09-20T09:31:35.726Z,2.80
2022-09-20T09:32:35.640Z,3.00
2022-09-20T09:33:35.637Z,3.60
2022-09-20T09:34:35.632Z,1.70
2022-09-20T09:35:35.624Z,1.50
2022-09-20T09:36:35.618Z,1.70
2022-09-20T09:37:35.619Z,1.30
2022-09-20T09:38:35.602Z,1.20
2022-09-20T09:39:35.589Z,1.20
2022-09-20T09:40:35.633Z,5.50
2022-09-20T09:41:35.593Z,6.30
2022-09-20T09:42:35.581Z,3.30
2022-09-20T09:43:35.587Z,2.30
2022-09-20T09:44:35.577Z,5.70
2022-09-20T09:45:35.625Z,3.60
2022-09-20T09:46:35.553Z,2.00
2022-09-20T09:47:35.547Z,3.50
2022-09-20T09:48:38.592Z,3.30
2022-09-20T09:49:35.532Z,3.20
2022-09-20T09:50:35.532Z,4.00
2022-09-20T09:51:35.521Z,2.60
2022-09-20T09:52:35.522Z,2.00
2022-09-20T09:53:35.507Z,2.00
2022-09-20T09:54:35.502Z,1.30
2022-09-20T09:55:35.496Z,1.70
2022-09-20T09:56:35.505Z,1.80
2022-09-20T09:57:35.486Z,1.40
2022-09-20T09:58:35.482Z,2.60
2022-09-20T09:59:35.467Z,1.70
2022-09-20T10:00:35.472Z,3.50
2022-09-20T10:01:35.512Z,4.80
2022-09-20T10:02:35.513Z,4.30
2022-09-20T10:03:35.444Z,3.40
2022-09-20T10:04:35.450Z,3.70
2022-09-20T10:05:35.436Z,5.10
2022-09-20T10:06:35.435Z,3.60
2022-09-20T10:07:35.427Z,2.60
2022-09-20T10:08:35.436Z,2.40
2022-09-20T10:09:35.424Z,2.70
2022-09-20T10:10:35.411Z,3.20
2022-09-20T10:11:35.401Z,3.50
2022-09-20T10:12:35.400Z,3.00
2022-09-20T10:13:40.320Z,2.20
2022-09-20T10:14:35.391Z,2.60
2022-09-20T10:15:35.387Z,3.60
2022-09-20T10:16:35.411Z,3.10
2022-09-20T10:17:35.369Z,2.70
2022-09-20T10:18:35.367Z,3.20
2022-09-20T10:19:35.374Z,2.40
2022-09-20T10:20:35.353Z,1.60
2022-09-20T10:21:35.348Z,2.20
2022-09-20T10:22:35.346Z,1.90
2022-09-20T10:24:01.278Z,3.10
2022-09-20T10:24:35.332Z,2.00
2022-09-20T10:25:35.326Z,1.90
2022-09-20T10:26:35.324Z,3.00
2022-09-20T10:27:35.314Z,1.90
2022-09-20T10:28:35.314Z,3.90
2022-09-20T10:29:35.306Z,3.80
2022-09-20T10:30:35.323Z,2.70
2022-09-20T10:31:35.358Z,3.10
2022-09-20T10:32:35.296Z,2.20
2022-09-20T10:33:35.287Z,2.20
2022-09-20T10:34:35.280Z,2.90
2022-09-20T10:35:35.283Z,2.30
2022-09-20T10:36:35.268Z,2.10
2022-09-20T10:37:35.264Z,1.90
2022-09-20T10:38:35.257Z,2.00
2022-09-20T10:39:35.252Z,2.00
2022-09-20T10:40:35.282Z,2.40
2022-09-20T10:41:35.250Z,2.50
2022-09-20T10:42:35.237Z,2.00
2022-09-20T10:43:35.233Z,2.30
2022-09-20T10:44:35.225Z,2.50
2022-09-20T10:46:35.248Z,2.10
2022-09-20T10:47:35.214Z,1.80
2022-09-20T10:48:35.204Z,2.20
2022-09-20T10:49:35.200Z,2.10
2022-09-20T10:50:35.193Z,2.50
2022-09-20T10:51:35.187Z,2.50
2022-09-20T10:52:35.184Z,2.20
2022-09-20T10:53:35.176Z,2.60
2022-09-20T10:54:35.170Z,2.80
2022-09-20T10:55:35.162Z,2.80
2022-09-20T10:56:35.156Z,2.50
2022-09-20T10:57:35.279Z,2.40
2022-09-20T10:58:35.148Z,2.90
2022-09-20T10:59:35.141Z,2.40
2022-09-20T11:00:35.194Z,2.90
2022-09-20T11:01:35.228Z,4.20
2022-09-20T11:02:35.165Z,3.30
2022-09-20T11:03:35.122Z,2.80
2022-09-20T11:04:35.111Z,2.60
2022-09-20T11:05:35.110Z,2.60
2022-09-20T11:06:35.099Z,1.30
2022-09-20T11:07:35.091Z,1.80
2022-09-20T11:08:35.082Z,1.50
2022-09-20T11:09:35.091Z,1.10
2022-09-20T11:10:35.071Z,1.10
2022-09-20T11:11:35.064Z,0.80
2022-09-20T11:12:35.057Z,1.40
2022-09-20T11:13:35.057Z,1.50
2022-09-20T11:14:35.048Z,1.30
2022-09-20T11:15:35.040Z,0.40
2022-09-20T11:16:35.104Z,0.40
2022-09-20T11:17:35.024Z,0.50
2022-09-20T11:18:35.018Z,0.80
2022-09-20T11:19:35.009Z,1.10
2022-09-20T11:20:35.005Z,0.90
2022-09-20T11:21:34.996Z,0.90
2022-09-20T11:22:34.989Z,0.90
2022-09-20T11:23:34.981Z,1.10
2022-09-20T11:24:34.976Z,1.20
2022-09-20T11:25:34.966Z,1.20
2022-09-20T11:26:34.962Z,1.40
2022-09-20T11:27:34.954Z,1.30
2022-09-20T11:28:34.946Z,1.40
2022-09-20T11:29:34.939Z,1.40
2022-09-20T11:30:34.933Z,1.70
2022-09-20T11:31:34.963Z,1.50
2022-09-20T11:32:34.919Z,1.40
2022-09-20T11:33:38.095Z,2.10
2022-09-20T11:34:34.908Z,3.50
2022-09-20T11:35:34.899Z,3.00
2022-09-20T11:36:34.890Z,2.50
2022-09-20T11:37:34.886Z,2.20
2022-09-20T11:38:34.877Z,2.50
2022-09-20T11:39:34.869Z,2.20
2022-09-20T11:40:34.931Z,3.40
2022-09-20T11:41:34.856Z,3.70
2022-09-20T11:42:34.857Z,3.60
2022-09-20T11:43:34.843Z,3.20
2022-09-20T11:44:34.833Z,3.70
2022-09-20T11:45:34.867Z,5.10
2022-09-20T11:46:34.824Z,5.80
2022-09-20T11:47:53.883Z,4.30
2022-09-20T11:48:34.808Z,4.30
2022-09-20T11:49:34.807Z,3.60
2022-09-20T11:50:34.798Z,3.60
2022-09-20T11:51:34.789Z,3.00
2022-09-20T11:52:34.796Z,2.80
2022-09-20T11:53:37.018Z,2.70
2022-09-20T11:54:34.773Z,3.40
2022-09-20T11:55:34.763Z,3.20
2022-09-20T11:56:34.757Z,4.00
2022-09-20T11:57:34.760Z,4.20
2022-09-20T11:58:34.745Z,4.20
2022-09-20T11:59:34.743Z,4.80
2022-09-20T12:00:34.728Z,4.40
2022-09-20T12:01:34.726Z,4.30
2022-09-20T12:02:34.809Z,4.40
2022-09-20T12:03:34.744Z,4.40
2022-09-20T12:04:35.326Z,4.60
2022-09-20T12:05:34.705Z,4.60
2022-09-20T12:06:34.693Z,5.00
2022-09-20T12:07:34.687Z,4.70
2022-09-20T12:08:34.682Z,5.10
2022-09-20T12:09:34.677Z,5.10
2022-09-20T12:10:34.673Z,3.30
2022-09-20T12:11:34.661Z,3.00
2022-09-20T12:12:34.661Z,3.30
2022-09-20T12:13:34.657Z,2.70
2022-09-20T12:14:34.646Z,2.80
2022-09-20T12:15:34.638Z,2.40
2022-09-20T12:16:34.651Z,2.30
2022-09-20T12:17:34.625Z,1.80
2022-09-20T12:18:34.620Z,1.90
2022-09-20T12:19:34.611Z,1.50
2022-09-20T12:20:34.620Z,1.60
2022-09-20T12:21:34.604Z,1.70
2022-09-20T12:22:34.596Z,1.70
2022-09-20T12:23:34.591Z,1.90
2022-09-20T12:24:34.587Z,1.90
2022-09-20T12:25:34.579Z,1.90
2022-09-20T12:26:34.572Z,2.10
2022-09-20T12:27:34.564Z,2.10
2022-09-20T12:28:34.565Z,1.90
2022-09-20T12:29:34.553Z,1.90
2022-09-20T12:30:34.549Z,1.60
2022-09-20T12:31:34.580Z,1.90
2022-09-20T12:32:34.533Z,1.90
2022-09-20T12:33:34.530Z,1.70
2022-09-20T12:34:34.523Z,1.80
2022-09-20T12:35:34.514Z,2.00
2022-09-20T12:36:34.508Z,2.10
2022-09-20T12:37:34.507Z,2.30
2022-09-20T12:38:34.496Z,2.20
2022-09-20T12:39:34.489Z,2.10
2022-09-20T12:40:34.524Z,2.10
2022-09-20T12:41:34.478Z,2.10
2022-09-20T12:42:34.471Z,2.10
2022-09-20T12:43:34.465Z,1.80
2022-09-20T12:44:34.459Z,1.70
2022-09-20T12:45:34.488Z,1.70
2022-09-20T12:46:34.451Z,1.50
2022-09-20T12:47:34.444Z,1.00
2022-09-20T12:48:34.432Z,1.00
2022-09-20T12:49:34.429Z,0.80
2022-09-20T12:50:34.422Z,0.70
2022-09-20T12:51:34.416Z,0.50
2022-09-20T12:52:34.404Z,0.40
2022-09-20T12:53:34.400Z,0.30
2022-09-20T12:54:34.394Z,0.50
2022-09-20T12:55:34.386Z,0.30
2022-09-20T12:56:34.382Z,0.20
2022-09-20T12:57:34.375Z,0.20
2022-09-20T12:58:34.367Z,0.20
2022-09-20T12:59:34.355Z,0.30
2022-09-20T13:00:34.431Z,0.20
2022-09-20T13:01:34.396Z,0.20
2022-09-20T13:02:34.339Z,0.20
2022-09-20T13:03:34.333Z,0.30
2022-09-20T13:04:34.325Z,0.20
2022-09-20T13:05:34.320Z,0.20
2022-09-20T13:06:34.318Z,0.30
2022-09-20T13:07:34.313Z,0.20
2022-09-20T13:08:34.489Z,0.30
2022-09-20T13:09:34.290Z,0.30
2022-09-20T13:10:34.281Z,0.30
2022-09-20T13:11:34.289Z,0.30
2022-09-20T13:12:34.265Z,0.40
2022-09-20T13:13:34.265Z,0.40
2022-09-20T13:14:34.252Z,0.40
2022-09-20T13:15:34.246Z,0.40
2022-09-20T13:16:34.340Z,0.40
2022-09-20T13:17:34.252Z,0.40
2022-09-20T13:18:34.232Z,0.40
2022-09-20T13:19:34.216Z,0.40
2022-09-20T13:20:34.211Z,0.40
2022-09-20T13:21:34.200Z,0.50
2022-09-20T13:22:34.197Z,0.40
2022-09-20T13:23:34.191Z,0.40
2022-09-20T13:24:34.184Z,0.40
2022-09-20T13:25:34.181Z,0.40
2022-09-20T13:26:34.177Z,0.50
2022-09-20T13:27:34.163Z,0.30
2022-09-20T13:28:34.161Z,0.40
2022-09-20T13:29:34.149Z,0.40
2022-09-20T13:30:34.156Z,0.30
2022-09-20T13:31:34.169Z,0.30
2022-09-20T13:32:34.130Z,0.30
2022-09-20T13:33:34.123Z,0.30
2022-09-20T13:34:41.273Z,0.30
2022-09-20T13:36:38.096Z,0.30
2022-09-20T13:37:38.076Z,0.50
2022-09-20T13:39:31.014Z,4.00
2022-09-20T13:40:31.077Z,2.80
2022-09-20T13:42:35.023Z,0.70
2022-09-20T13:43:35.003Z,0.50
2022-09-20T13:45:31.849Z,0.80
2022-09-20T13:46:27.900Z,1.00